Time;durP1;ratioP1;P1;durP2;ratioP2;P2;SDS_P1;SDS_P2;PMS_P1;PMS_P2;Temp;Humidity;BMP_temperature;BMP_pressure;BME280_temperature;BME280_humidity;BME280_pressure;Samples;Min_cycle;Max_cycle;Signal;HPM_P1;HPM_P2
2023/04/22 00:01:11;;;;;;;10.35;7.28;;;12.00;99.90;;;;;;4806250;29;3631374;-95
2023/04/22 00:03:38;;;;;;;8.63;6.60;;;12.80;99.90;;;;;;4955733;28;20110;-96
2023/04/22 00:06:03;;;;;;;11.23;7.57;;;11.90;99.90;;;;;;4930630;29;20048;-95
2023/04/22 00:08:29;;;;;;;11.05;7.20;;;11.80;99.90;;;;;;4956705;28;20039;-95
2023/04/22 00:10:55;;;;;;;12.18;6.78;;;12.00;99.90;;;;;;4940300;28;20433;-96
2023/04/22 00:13:21;;;;;;;9.32;6.50;;;11.80;99.90;;;;;;4917445;29;20044;-95
2023/04/22 00:15:47;;;;;;;11.40;7.10;;;11.90;99.90;;;;;;4921110;29;20154;-94
2023/04/22 00:18:12;;;;;;;10.30;6.60;;;11.80;99.90;;;;;;4952471;29;20047;-93
2023/04/22 00:20:41;;;;;;;12.25;7.75;;;11.70;99.90;;;;;;4920420;29;20051;-93
2023/04/22 00:23:07;;;;;;;14.35;6.85;;;11.70;99.90;;;;;;4933226;28;20332;-92
2023/04/22 00:25:33;;;;;;;17.40;7.85;;;11.70;99.90;;;;;;4920483;29;20054;-93
2023/04/22 00:27:58;;;;;;;13.32;7.28;;;11.70;99.90;;;;;;4952367;29;20142;-94
2023/04/22 00:30:24;;;;;;;11.38;7.47;;;11.70;99.90;;;;;;4920224;29;20126;-94
2023/04/22 00:32:50;;;;;;;9.65;6.88;;;11.60;99.90;;;;;;4931777;28;20069;-93
2023/04/22 00:35:16;;;;;;;13.85;7.32;;;11.60;99.90;;;;;;4964492;28;20067;-96
2023/04/22 00:37:41;;;;;;;10.75;7.32;;;11.60;99.90;;;;;;4918174;29;20074;-95
2023/04/22 00:40:08;;;;;;;9.85;6.70;;;11.60;99.90;;;;;;4920210;29;20047;-94
2023/04/22 00:42:35;;;;;;;11.73;6.85;;;11.60;99.90;;;;;;4952259;29;20036;-95
2023/04/22 00:45:01;;;;;;;11.73;7.32;;;12.10;99.90;;;;;;4927918;28;20133;-95
2023/04/22 00:47:27;;;;;;;11.70;7.25;;;11.80;99.90;;;;;;4957779;28;20483;-95
2023/04/22 00:49:53;;;;;;;9.57;6.90;;;11.40;99.90;;;;;;4959429;28;20211;-95
2023/04/22 00:52:19;;;;;;;17.02;7.43;;;11.30;99.90;;;;;;4941939;29;20480;-95
2023/04/22 00:54:45;;;;;;;8.75;7.22;;;11.30;99.90;;;;;;4921082;29;20039;-96
2023/04/22 00:57:11;;;;;;;10.32;7.90;;;11.20;99.90;;;;;;4918318;29;20044;-96
2023/04/22 00:59:37;;;;;;;10.20;7.30;;;11.10;99.90;;;;;;4920253;29;20511;-94
2023/04/22 01:02:03;;;;;;;9.95;7.82;;;11.00;99.90;;;;;;4953240;28;20140;-94
2023/04/22 01:04:29;;;;;;;12.52;7.97;;;10.90;99.90;;;;;;4930281;28;20206;-95
2023/04/22 01:06:55;;;;;;;10.00;8.40;;;10.80;99.90;;;;;;4930078;29;20047;-95
2023/04/22 01:09:20;;;;;;;14.65;7.88;;;10.80;99.90;;;;;;4920611;29;20098;-95
2023/04/22 01:11:46;;;;;;;14.68;8.70;;;10.70;99.90;;;;;;4938946;29;20131;-95
2023/04/22 01:14:13;;;;;;;16.48;8.75;;;10.70;99.90;;;;;;4943239;28;20066;-94
2023/04/22 01:16:39;;;;;;;14.10;8.73;;;10.60;99.90;;;;;;4951288;29;20057;-93
2023/04/22 01:19:07;;;;;;;12.77;8.57;;;10.60;99.90;;;;;;4932605;28;20039;-94
2023/04/22 01:21:34;;;;;;;11.90;7.90;;;10.50;99.90;;;;;;4941641;28;20046;-94
2023/04/22 01:24:00;;;;;;;11.13;7.70;;;10.60;99.90;;;;;;4931480;28;20043;-93
2023/04/22 01:26:26;;;;;;;10.68;7.78;;;10.10;99.90;;;;;;4928515;29;20055;-94
2023/04/22 01:28:54;;;;;;;13.80;7.95;;;10.40;99.90;;;;;;4923674;29;20039;-95
2023/04/22 01:31:20;;;;;;;12.90;8.95;;;10.40;99.90;;;;;;4922757;29;20094;-95
2023/04/22 01:33:47;;;;;;;14.40;9.43;;;10.40;99.90;;;;;;4923940;29;20444;-95
2023/04/22 01:36:13;;;;;;;15.48;9.55;;;10.40;99.90;;;;;;4923047;29;20043;-94
2023/04/22 01:38:39;;;;;;;13.23;9.73;;;10.30;99.90;;;;;;4920642;29;20138;-95
2023/04/22 01:41:05;;;;;;;15.20;10.38;;;10.30;99.90;;;;;;4905275;29;20226;-95
2023/04/22 01:43:31;;;;;;;13.52;9.82;;;10.30;99.90;;;;;;4914179;29;20062;-96
2023/04/22 01:45:59;;;;;;;14.35;9.82;;;10.30;99.90;;;;;;4924220;29;20103;-95
2023/04/22 01:48:26;;;;;;;14.93;9.75;;;10.30;99.90;;;;;;4931793;28;20055;-96
2023/04/22 01:50:52;;;;;;;13.23;9.85;;;10.30;99.90;;;;;;4942965;29;20047;-95
2023/04/22 01:53:18;;;;;;;13.00;10.02;;;10.30;99.90;;;;;;4923727;29;20047;-95
2023/04/22 01:55:44;;;;;;;10.45;7.95;;;10.30;99.90;;;;;;4935939;28;20043;-96
2023/04/22 01:58:09;;;;;;;12.48;8.75;;;10.20;99.90;;;;;;4923220;29;20498;-96
2023/04/22 02:00:35;;;;;;;12.38;9.48;;;10.70;99.90;;;;;;4934523;28;20505;-95
2023/04/22 02:03:01;;;;;;;12.88;9.15;;;10.00;99.90;;;;;;4922963;29;20051;-95
2023/04/22 02:05:27;;;;;;;11.10;9.40;;;9.90;99.90;;;;;;4967102;28;20039;-95
2023/04/22 02:07:53;;;;;;;10.02;7.75;;;9.90;99.90;;;;;;4923282;29;20550;-95
2023/04/22 02:10:19;;;;;;;10.85;8.60;;;10.00;99.90;;;;;;4922725;28;20050;-95
2023/04/22 02:12:45;;;;;;;15.45;8.93;;;9.70;99.90;;;;;;4923625;29;20531;-94
2023/04/22 02:15:11;;;;;;;12.65;8.35;;;9.60;99.90;;;;;;4923107;29;20126;-94
2023/04/22 02:17:41;;;;;;;15.13;9.40;;;9.70;99.90;;;;;;4931648;28;20046;-95
2023/04/22 02:20:07;;;;;;;14.02;9.25;;;9.50;99.90;;;;;;4943766;28;20110;-96
2023/04/22 02:22:33;;;;;;;13.65;9.52;;;9.50;99.90;;;;;;4932659;29;20043;-94
2023/04/22 02:25:02;;;;;;;12.20;10.02;;;10.20;99.90;;;;;;4925443;28;20051;-94
2023/04/22 02:27:28;;;;;;;9.10;6.80;;;9.40;99.90;;;;;;4932758;29;20043;-94
2023/04/22 02:29:53;;;;;;;10.20;8.10;;;9.40;99.90;;;;;;4954278;29;20044;-94
2023/04/22 02:32:19;;;;;;;6.22;5.15;;;9.30;99.90;;;;;;4950281;29;20408;-94
2023/04/22 02:34:46;;;;;;;4.88;4.18;;;9.20;99.90;;;;;;4954141;28;20042;-94
2023/04/22 02:37:12;;;;;;;9.40;5.25;;;9.20;99.90;;;;;;4963675;28;20066;-94
2023/04/22 02:39:37;;;;;;;6.30;4.43;;;10.00;99.90;;;;;;4922769;29;20048;-95
2023/04/22 02:42:03;;;;;;;20.13;6.30;;;9.90;99.90;;;;;;4923149;29;20134;-95
2023/04/22 02:44:29;;;;;;;10.43;8.27;;;9.10;99.90;;;;;;4924658;28;20035;-94
2023/04/22 02:46:55;;;;;;;14.70;10.75;;;9.00;99.90;;;;;;4964347;28;20051;-95
2023/04/22 02:49:20;;;;;;;12.07;9.65;;;9.00;99.90;;;;;;4921428;29;20448;-93
2023/04/22 02:51:46;;;;;;;10.80;8.73;;;9.00;99.90;;;;;;4922094;29;20079;-93
2023/04/22 02:54:13;;;;;;;12.10;8.77;;;9.00;99.90;;;;;;4966471;28;20079;-93
2023/04/22 02:56:39;;;;;;;11.27;8.02;;;8.90;99.90;;;;;;4944437;29;20043;-93
2023/04/22 02:59:04;;;;;;;14.90;9.48;;;8.90;99.90;;;;;;4950389;28;20436;-93
2023/04/22 03:01:31;;;;;;;10.73;8.43;;;8.80;99.90;;;;;;4917243;29;20146;-94
2023/04/22 03:03:56;;;;;;;12.57;10.07;;;9.20;99.90;;;;;;4918551;29;20388;-94
2023/04/22 03:06:22;;;;;;;17.10;12.55;;;8.70;99.90;;;;;;4949985;29;20080;-93
2023/04/22 03:08:48;;;;;;;13.10;11.68;;;9.20;99.90;;;;;;4918143;28;20058;-93
2023/04/22 03:11:13;;;;;;;12.75;10.00;;;8.70;99.90;;;;;;4921717;29;20047;-93
2023/04/22 03:13:39;;;;;;;11.02;9.40;;;8.60;99.90;;;;;;4920806;29;20051;-93
2023/04/22 03:16:05;;;;;;;11.27;8.30;;;9.50;99.90;;;;;;4921814;29;20471;-93
2023/04/22 03:18:31;;;;;;;10.65;9.50;;;8.50;99.90;;;;;;4953509;29;20055;-92
2023/04/22 03:20:56;;;;;;;13.00;9.82;;;8.50;99.90;;;;;;4953049;29;20054;-93
2023/04/22 03:23:22;;;;;;;14.00;10.40;;;9.10;99.90;;;;;;4961394;28;20050;-93
2023/04/22 03:25:48;;;;;;;10.50;8.90;;;8.60;99.90;;;;;;4935042;29;20051;-94
2023/04/22 03:28:13;;;;;;;13.27;10.20;;;8.40;99.90;;;;;;4952806;29;20039;-93
2023/04/22 03:30:39;;;;;;;11.43;9.70;;;8.40;99.90;;;;;;4953283;28;20051;-92
2023/04/22 03:33:05;;;;;;;11.55;9.70;;;8.30;99.90;;;;;;4954118;28;20547;-94
2023/04/22 03:35:30;;;;;;;9.55;8.43;;;9.30;99.90;;;;;;4963596;28;20076;-94
2023/04/22 03:37:56;;;;;;;15.75;11.38;;;9.10;99.90;;;;;;4967765;28;20082;-94
2023/04/22 03:40:22;;;;;;;12.48;10.90;;;8.70;99.90;;;;;;4931463;29;20039;-94
2023/04/22 03:42:47;;;;;;;15.30;12.73;;;8.30;99.90;;;;;;4921586;29;20054;-93
2023/04/22 03:45:14;;;;;;;16.15;13.30;;;8.30;99.90;;;;;;4952503;29;20043;-92
2023/04/22 03:47:40;;;;;;;14.00;12.25;;;8.20;99.90;;;;;;4921203;29;20183;-92
2023/04/22 03:50:06;;;;;;;15.68;11.95;;;8.40;99.90;;;;;;4928958;28;20500;-93
2023/04/22 03:52:32;;;;;;;14.88;13.05;;;8.20;99.90;;;;;;4938840;28;20091;-90
2023/04/22 03:54:57;;;;;;;14.07;11.40;;;8.50;99.90;;;;;;4952300;28;20070;-93
2023/04/22 03:57:23;;;;;;;10.00;8.98;;;8.40;99.90;;;;;;4948627;28;20763;-93
2023/04/22 03:59:49;;;;;;;9.93;8.45;;;9.00;99.90;;;;;;4967647;28;20063;-93
2023/04/22 04:02:14;;;;;;;8.23;7.30;;;8.30;99.90;;;;;;4919749;28;20055;-92
2023/04/22 04:04:40;;;;;;;11.75;7.50;;;8.00;99.90;;;;;;4959558;28;20044;-93
2023/04/22 04:07:06;;;;;;;6.53;5.63;;;8.00;99.90;;;;;;4955205;28;20055;-94
2023/04/22 04:09:32;;;;;;;11.73;6.78;;;8.70;99.90;;;;;;4951067;28;20566;-92
2023/04/22 04:11:58;;;;;;;11.20;8.05;;;7.90;99.90;;;;;;4953333;28;20130;-92
2023/04/22 04:14:24;;;;;;;13.20;8.82;;;7.90;99.90;;;;;;4961318;28;20554;-93
2023/04/22 04:16:50;;;;;;;10.68;9.27;;;8.30;99.90;;;;;;4964592;28;20039;-92
2023/04/22 04:19:15;;;;;;;11.18;8.35;;;7.90;99.90;;;;;;4950606;28;20054;-94
2023/04/22 04:21:42;;;;;;;11.73;8.48;;;7.80;99.90;;;;;;4950075;28;20047;-94
2023/04/22 04:24:08;;;;;;;11.32;9.65;;;8.20;99.90;;;;;;4920010;29;20146;-93
2023/04/22 04:26:33;;;;;;;8.85;7.63;;;7.40;99.90;;;;;;4962053;28;20134;-93
2023/04/22 04:29:05;;;;;;;12.80;9.65;;;8.40;99.90;;;;;;4951652;28;20051;-92
2023/04/22 04:31:31;;;;;;;13.82;12.43;;;7.80;99.90;;;;;;4950693;28;20090;-93
2023/04/22 04:33:59;;;;;;;13.68;12.27;;;7.80;99.90;;;;;;4960131;28;20046;-94
2023/04/22 04:36:28;;;;;;;14.93;13.15;;;7.70;99.90;;;;;;4940383;29;20138;-93
2023/04/22 04:38:54;;;;;;;21.27;15.15;;;8.20;99.90;;;;;;4955343;28;20047;-95
2023/04/22 04:41:20;;;;;;;17.45;14.40;;;7.80;99.90;;;;;;4967011;28;20124;-93
2023/04/22 04:43:46;;;;;;;16.73;12.80;;;7.80;99.90;;;;;;4954940;28;20063;-93
2023/04/22 04:46:15;;;;;;;22.63;15.48;;;8.20;99.90;;;;;;4954327;28;20035;-93
2023/04/22 04:48:41;;;;;;;19.77;14.23;;;7.70;99.90;;;;;;4954439;28;20051;-93
2023/04/22 04:51:08;;;;;;;16.48;13.65;;;7.70;99.90;;;;;;4954470;28;20051;-93
2023/04/22 04:53:33;;;;;;;13.07;10.20;;;7.70;99.90;;;;;;4921636;29;20136;-93
2023/04/22 04:55:59;;;;;;;11.73;9.85;;;7.70;99.90;;;;;;4940474;28;20137;-93
2023/04/22 04:58:25;;;;;;;13.88;12.27;;;8.20;99.90;;;;;;4958609;28;20478;-94
2023/04/22 05:00:51;;;;;;;17.50;11.93;;;7.80;99.90;;;;;;4947501;28;20047;-94
2023/04/22 05:03:16;;;;;;;12.52;11.23;;;7.70;99.90;;;;;;4943315;28;20159;-93
2023/04/22 05:05:42;;;;;;;14.80;12.75;;;8.10;99.90;;;;;;4939339;28;20046;-92
2023/04/22 05:08:11;;;;;;;20.67;12.85;;;7.70;99.90;;;;;;4931082;29;20047;-92
2023/04/22 05:10:37;;;;;;;14.85;13.15;;;7.80;99.90;;;;;;4922704;29;20043;-93
2023/04/22 05:13:02;;;;;;;17.55;12.77;;;8.50;99.90;;;;;;4922389;29;20043;-94
2023/04/22 05:15:28;;;;;;;17.17;14.00;;;8.50;99.90;;;;;;4934371;29;20069;-94
2023/04/22 05:17:54;;;;;;;19.80;13.38;;;8.20;99.90;;;;;;4922688;29;20051;-95
2023/04/22 05:20:20;;;;;;;15.77;13.70;;;8.00;99.90;;;;;;4934766;29;20078;-94
2023/04/22 05:22:45;;;;;;;16.08;13.02;;;8.10;99.90;;;;;;4933530;28;20047;-94
2023/04/22 05:25:11;;;;;;;16.95;13.35;;;8.10;99.90;;;;;;4934449;29;20039;-94
2023/04/22 05:27:37;;;;;;;16.00;13.18;;;8.40;99.90;;;;;;4923364;29;20530;-93
2023/04/22 05:30:03;;;;;;;17.52;13.10;;;8.20;99.90;;;;;;4912813;28;20046;-94
2023/04/22 05:32:29;;;;;;;16.25;12.82;;;8.20;99.90;;;;;;4932391;29;20058;-94
2023/04/22 05:34:54;;;;;;;16.73;13.00;;;8.90;99.90;;;;;;4937143;28;20130;-93
2023/04/22 05:37:23;;;;;;;19.25;12.77;;;8.60;99.90;;;;;;4924945;29;20137;-94
2023/04/22 05:39:49;;;;;;;17.48;13.55;;;8.20;99.90;;;;;;4967516;28;20043;-94
2023/04/22 05:42:15;;;;;;;20.25;14.13;;;8.30;99.90;;;;;;4924702;29;20043;-94
2023/04/22 05:44:41;;;;;;;14.70;12.70;;;8.30;99.90;;;;;;4929378;29;20035;-94
2023/04/22 05:47:06;;;;;;;17.58;14.25;;;8.40;99.90;;;;;;4925843;29;20051;-96
2023/04/22 05:49:41;;;;;;;18.40;13.45;;;8.40;99.90;;;;;;4967451;28;20050;-95
2023/04/22 05:52:10;;;;;;;18.10;14.07;;;8.50;99.90;;;;;;4923868;29;20054;-96
2023/04/22 05:54:36;;;;;;;19.45;14.15;;;8.70;99.90;;;;;;4957649;28;20047;-95
2023/04/22 05:57:02;;;;;;;26.20;14.18;;;8.80;99.90;;;;;;4921935;29;20102;-94
2023/04/22 05:59:29;;;;;;;21.33;14.50;;;9.00;99.90;;;;;;4920536;28;20043;-94
2023/04/22 06:01:55;;;;;;;17.27;14.10;;;9.30;99.90;;;;;;4918594;28;20079;-96
2023/04/22 06:04:20;;;;;;;21.30;15.68;;;9.20;99.90;;;;;;4933985;29;20043;-95
2023/04/22 06:06:46;;;;;;;17.83;13.93;;;9.30;99.90;;;;;;4950763;28;20043;-95
2023/04/22 06:09:12;;;;;;;18.35;13.65;;;9.50;99.90;;;;;;4918833;29;20123;-96
2023/04/22 06:11:39;;;;;;;20.23;14.25;;;10.40;99.90;;;;;;4950889;28;20066;-95
2023/04/22 06:14:11;;;;;;;20.23;13.38;;;9.90;99.90;;;;;;4959916;29;20107;-95
2023/04/22 06:16:38;;;;;;;19.95;14.80;;;10.10;99.90;;;;;;4970677;28;20043;-94
2023/04/22 06:19:07;;;;;;;23.58;13.40;;;9.80;99.90;;;;;;4933792;29;20035;-94
2023/04/22 06:21:39;;;;;;;21.05;13.90;;;9.90;99.90;;;;;;4921573;28;20048;-95
2023/04/22 06:24:05;;;;;;;19.50;13.20;;;9.50;99.90;;;;;;4919149;29;20043;-96
2023/04/22 06:26:31;;;;;;;19.35;13.73;;;10.00;99.90;;;;;;4916540;29;20052;-95
2023/04/22 06:28:57;;;;;;;21.58;12.65;;;10.30;99.90;;;;;;4922697;29;20045;-96
2023/04/22 06:31:22;;;;;;;20.58;13.10;;;10.10;99.90;;;;;;4950488;28;20137;-93
2023/04/22 06:33:48;;;;;;;23.20;13.10;;;10.20;99.90;;;;;;4938788;28;20047;-93
2023/04/22 06:36:14;;;;;;;23.55;11.98;;;10.40;99.90;;;;;;4934683;28;20047;-94
2023/04/22 06:38:46;;;;;;;18.23;13.23;;;10.40;99.90;;;;;;4935197;28;20118;-94
2023/04/22 06:41:13;;;;;;;16.38;12.80;;;10.50;99.90;;;;;;4902501;29;20089;-95
2023/04/22 06:43:38;;;;;;;15.80;13.18;;;10.50;99.90;;;;;;4934915;28;20059;-93
2023/04/22 06:46:04;;;;;;;14.32;12.82;;;10.80;99.90;;;;;;4945479;28;20040;-95
2023/04/22 06:48:30;;;;;;;14.15;12.05;;;10.70;99.90;;;;;;4917967;29;20554;-94
2023/04/22 06:50:56;;;;;;;16.00;11.48;;;10.80;99.90;;;;;;4943397;28;20439;-95
2023/04/22 06:53:22;;;;;;;15.55;11.85;;;10.90;99.90;;;;;;4926397;29;20147;-94
2023/04/22 06:55:49;;;;;;;17.75;11.80;;;11.00;99.90;;;;;;4918856;28;20071;-95
2023/04/22 06:58:20;;;;;;;17.33;11.10;;;11.10;99.90;;;;;;4920105;29;20034;-95
2023/04/22 07:00:48;;;;;;;13.65;11.77;;;11.20;99.90;;;;;;4918744;29;20075;-95
2023/04/22 07:03:16;;;;;;;17.75;11.02;;;11.30;99.90;;;;;;4950785;28;20519;-92
2023/04/22 07:05:42;;;;;;;14.93;10.70;;;11.40;99.90;;;;;;4934493;29;20058;-93
2023/04/22 07:08:08;;;;;;;15.90;11.05;;;11.50;99.90;;;;;;4921341;28;20058;-95
2023/04/22 07:10:34;;;;;;;13.95;10.63;;;11.60;99.90;;;;;;4919731;29;20475;-95
2023/04/22 07:13:00;;;;;;;17.50;11.07;;;11.70;99.90;;;;;;4962923;28;20512;-94
2023/04/22 07:15:26;;;;;;;17.10;10.70;;;11.80;99.90;;;;;;4921055;29;20507;-96
2023/04/22 07:17:56;;;;;;;13.85;10.13;;;11.80;99.90;;;;;;4949089;28;20048;-96
2023/04/22 07:20:40;;;;;;;16.25;10.40;;;11.90;99.90;;;;;;4937903;28;20050;-94
2023/04/22 07:23:06;;;;;;;12.68;10.75;;;12.00;99.90;;;;;;4951124;28;20130;-92
2023/04/22 07:25:37;;;;;;;16.20;10.35;;;12.10;99.90;;;;;;4952097;28;20047;-92
2023/04/22 07:28:03;;;;;;;15.35;10.38;;;12.10;99.90;;;;;;4950455;28;20179;-92
2023/04/22 07:30:28;;;;;;;14.35;10.32;;;12.20;99.90;;;;;;4951304;28;20137;-92
2023/04/22 07:32:54;;;;;;;15.70;9.77;;;12.30;99.90;;;;;;4950303;28;20104;-91
2023/04/22 07:35:20;;;;;;;13.55;9.98;;;12.40;99.90;;;;;;4918216;29;20039;-92
2023/04/22 07:37:46;;;;;;;15.45;11.30;;;12.40;99.90;;;;;;4918886;28;20051;-92
2023/04/22 07:40:12;;;;;;;14.40;9.70;;;12.50;99.90;;;;;;4958611;28;20035;-92
2023/04/22 07:42:41;;;;;;;15.48;10.07;;;12.60;99.90;;;;;;4954054;28;20054;-92
2023/04/22 07:45:07;;;;;;;13.07;9.27;;;12.70;99.90;;;;;;4934955;28;20194;-91
2023/04/22 07:47:33;;;;;;;12.30;9.02;;;12.80;99.90;;;;;;4956350;28;20051;-92
2023/04/22 07:49:59;;;;;;;14.73;9.82;;;12.90;99.90;;;;;;4918656;29;20051;-92
2023/04/22 07:52:45;;;;;;;13.18;9.32;;;12.90;99.90;;;;;;4918827;29;20055;-92
2023/04/22 07:55:11;;;;;;;13.23;10.07;;;13.00;99.90;;;;;;4927638;28;20459;-92
2023/04/22 07:57:38;;;;;;;15.43;9.98;;;13.10;99.90;;;;;;4922449;29;20146;-91
2023/04/22 08:00:08;;;;;;;16.10;9.20;;;13.20;99.90;;;;;;4919636;29;20124;-93
2023/04/22 08:02:34;;;;;;;12.23;8.85;;;13.30;99.90;;;;;;4950654;28;20079;-93
2023/04/22 08:05:05;;;;;;;12.10;8.98;;;13.50;99.90;;;;;;4949825;28;20138;-92
2023/04/22 08:07:41;;;;;;;13.55;9.60;;;13.60;99.90;;;;;;4919231;29;20150;-92
2023/04/22 08:10:22;;;;;;;12.63;8.93;;;13.70;99.90;;;;;;4930725;28;20057;-92
2023/04/22 08:12:47;;;;;;;11.68;8.27;;;13.80;99.90;;;;;;4930030;29;20065;-92
2023/04/22 08:15:15;;;;;;;11.20;8.70;;;13.90;99.90;;;;;;4921422;28;20488;-90
2023/04/22 08:17:43;;;;;;;12.70;9.02;;;14.00;99.90;;;;;;4952267;28;20101;-92
2023/04/22 08:20:16;;;;;;;12.32;9.02;;;14.10;99.90;;;;;;4937664;28;20051;-92
2023/04/22 08:23:07;;;;;;;;;;;;;;;;;;;;;
2023/04/22 08:25:59;;;;;;;10.85;9.02;;;14.30;99.90;;;;;;4954743;28;20044;-92
2023/04/22 08:28:35;;;;;;;;;;;14.50;99.90;;;;;;4928158;28;20058;-91
2023/04/22 08:31:05;;;;;;;12.20;9.00;;;14.60;99.90;;;;;;4971427;28;19960;-92
2023/04/22 08:33:31;;;;;;;13.18;8.88;;;14.70;99.90;;;;;;4939841;28;20130;-93
2023/04/22 08:35:57;;;;;;;10.80;8.73;;;14.80;99.90;;;;;;4957152;28;20126;-93
2023/04/22 08:38:25;;;;;;;12.27;8.45;;;14.90;99.90;;;;;;4949624;28;20050;-92
2023/04/22 08:40:55;;;;;;;12.75;8.93;;;15.00;99.90;;;;;;4919080;28;20047;-91
2023/04/22 08:43:51;;;;;;;12.88;8.40;;;15.10;99.90;;;;;;4920338;29;20102;-90
2023/04/22 08:46:30;;;;;;;;;;;;;;;;;;;;;
2023/04/22 08:49:24;;;;;;;13.07;8.55;;;15.30;99.90;;;;;;4968156;28;20452;-92
2023/04/22 08:51:49;;;;;;;13.00;8.38;;;15.60;99.90;;;;;;4949485;28;20050;-95
2023/04/22 08:54:55;;;;;;;16.00;8.90;;;15.80;99.90;;;;;;4962391;28;20082;-94
2023/04/22 08:57:23;;;;;;;12.32;7.68;;;16.00;99.90;;;;;;4917843;29;20055;-93
2023/04/22 09:00:25;;;;;;;;;;;;;;;;;;;;;
2023/04/22 09:03:17;;;;;;;12.40;9.40;;;16.10;99.90;;;;;;4907405;29;20111;-93
2023/04/22 09:05:45;;;;;;;15.15;8.43;;;16.10;99.90;;;;;;4900299;29;20044;-95
2023/04/22 09:08:12;;;;;;;13.27;8.48;;;16.10;99.90;;;;;;4941391;29;20039;-92
2023/04/22 09:10:38;;;;;;;10.40;7.97;;;16.20;99.90;;;;;;4929955;29;20130;-94
2023/04/22 09:13:18;;;;;;;;;;;;;;;;;;;;;
2023/04/22 09:16:39;;;;;;;11.40;7.65;;;16.30;99.90;;;;;;4913795;29;20066;-93
2023/04/22 09:19:44;;;;;;;;;;;;;;;;;;;;;
2023/04/22 09:23:01;;;;;;;15.32;8.15;;;16.10;99.90;;;;;;4896421;29;20469;-94
2023/04/22 09:26:05;;;;;;;10.40;8.32;;;16.00;99.90;;;;;;4894968;29;20063;-95
2023/04/22 09:28:49;;;;;;;11.68;9.23;;;16.10;99.90;;;;;;4916610;29;20726;-93
2023/04/22 09:31:18;;;;;;;11.30;7.88;;;16.20;99.90;;;;;;4920149;29;20047;-94
2023/04/22 09:33:50;;;;;;;11.18;7.45;;;16.20;99.90;;;;;;4902370;29;20052;-95
2023/04/22 09:36:52;;;;;;;;;;;;;;;;;;;;;
2023/04/22 09:39:42;;;;;;;12.25;8.02;;;16.40;99.90;;;;;;4905535;29;20500;-93
2023/04/22 09:43:32;;;;;;;9.85;7.88;;;16.30;99.90;;;;;;4914108;29;20047;-93
2023/04/22 09:46:02;;;;;;;10.32;8.00;;;16.60;99.90;;;;;;4892051;29;20058;-92
2023/04/22 09:52:26;;;;;;;;;;;;;;;;;;;;;
2023/04/22 09:55:40;;;;;;;;;;;;;;;;;;;;;
2023/04/22 10:16:23;;;;;;;12.55;7.05;;;17.80;99.90;;;;;;5004846;23;20055;-95
2023/04/22 10:19:47;;;;;;;11.95;7.25;;;17.60;99.90;;;;;;4951523;29;20047;-93
2023/04/22 10:22:59;;;;;;;10.65;7.47;;;17.90;99.90;;;;;;4919783;29;20075;-94
2023/04/22 10:26:06;;;;;;;9.43;7.00;;;17.70;99.90;;;;;;4920561;29;20499;-94
2023/04/22 10:29:16;;;;;;;9.35;6.53;;;18.00;99.90;;;;;;4927884;29;20047;-94
2023/04/22 10:32:44;;;;;;;12.13;7.57;;;18.00;99.90;;;;;;4930838;29;20063;-95
2023/04/22 12:13:08;;;;;;;7.97;4.20;;;21.10;99.90;;;;;;4912335;29;20044;-93
2023/04/22 12:15:21;;;;;;;6.28;4.43;;;21.20;99.90;;;;;;4911404;29;20062;-92
2023/04/22 16:24:16;;;;;;;;;;;;;;;;;;;;;
2023/04/22 16:28:48;;;;;;;27.02;22.67;;;15.00;99.90;;;;;;5100610;23;20038;-96
2023/04/22 16:31:21;;;;;;;;;;;;;;;;;;;;;
2023/04/22 16:34:32;;;;;;;30.15;26.20;;;14.80;99.90;;;;;;4901828;29;20080;-94
2023/04/22 16:36:43;;;;;;;32.60;28.73;;;14.70;99.90;;;;;;4914076;29;20884;-96
2023/04/22 16:39:22;;;;;;;;;;;;;;;;;;;;;
2023/04/22 16:59:57;;;;;;;;;;;;;;;;;;;;;
2023/04/22 17:39:30;;;;;;;;;;;;;;;;;;;;;
2023/04/22 18:05:58;;;;;;;;;;;;;;;;;;;;;
2023/04/22 18:08:55;;;;;;;16.70;8.50;;;12.20;99.90;;;;;;4885375;29;20056;-94
2023/04/22 18:15:25;;;;;;;;;;;;;;;;;;;;;
2023/04/22 18:18:46;;;;;;;;;;;;;;;;;;;;;
2023/04/22 18:30:59;;;;;;;;;;;;;;;;;;;;;
2023/04/22 18:34:14;;;;;;;25.38;17.35;;;11.20;99.90;;;;;;4916755;29;20055;-96
2023/04/22 18:36:42;;;;;;;27.73;16.88;;;11.10;99.90;;;;;;4891014;29;20079;-96
2023/04/22 18:39:15;;;;;;;28.23;16.98;;;11.40;99.90;;;;;;4902776;29;20047;-96
2023/04/22 18:45:28;;;;;;;;;;;;;;;;;;;;;
2023/04/22 19:12:04;;;;;;;;;;;;;;;;;;;;;
2023/04/22 20:28:04;;;;;;;21.48;14.75;;;10.20;99.90;;;;;;4900145;29;20315;-96
2023/04/22 20:35:09;;;;;;;;;;;;;;;;;;;;;
2023/04/22 20:42:04;;;;;;;;;;;;;;;;;;;;;
2023/04/22 20:44:50;;;;;;;29.10;17.20;;;10.30;99.90;;;;;;4896931;29;20053;-95
2023/04/22 20:51:06;;;;;;;;;;;;;;;;;;;;;
2023/04/22 20:54:53;;;;;;;30.25;19.52;;;10.40;99.90;;;;;;4864698;29;20056;-95
2023/04/22 21:05:11;;;;;;;;;;;;;;;;;;;;;
2023/04/22 21:07:31;;;;;;;;;;;;;;;;;;;;;
2023/04/22 21:10:07;;;;;;;29.02;17.60;;;10.60;99.90;;;;;;4881789;29;20052;-96
2023/04/22 21:13:15;;;;;;;;;;;;;;;;;;;;;
2023/04/22 21:31:22;;;;;;;24.80;16.65;;;10.40;99.90;;;;;;4810297;29;20042;-96
2023/04/22 21:34:59;;;;;;;;;;;;;;;;;;;;;
